MPMGSKBQ

Guest
Details From MPMG - ALBROOK MARCOS A GELABERT INTL
To SKBQ - Ernesto Cortissoz
Flight Number -
Tags generated
Created
Modified
Stats Distance 309 nm / 572 km
Max Altitude 29,400 ft / 8,961 m
Waypoints 5
Social Downloads 0
Likes 0
Share VATSIM

Download

Looking for another format? Having issues loading an existing format? Contact us
Advertisement - Login to hide

Notes

Basic altitude profile: - Ascent Rate: 1500ft/min - Ascent Speed: 120kts - Cruise Altitude: 4000ft - Cruise Speed: 180kts - Descent Rate: 1000ft/min - Descent Speed: 120kts Options: - Use NATs: no - Use PACOTS: no - Use low airways: yes - Use high airways: no

Route

MPMG PONPO A574 DETOK SKBQ

ID Type Via Altitude Latitude Longitude Leg Dist Tot Dist Heading (true) Name
O MPMG APT - 0 ft / 0 m 8.97334˚ -79.55558˚ - 0 nm - ALBROOK MARCOS A GELABERT INTL
PONPO FIX - 29,400 ft / 8,961 m 9.27011˚ -78.19944˚ 82 nm 82 nm 77° / 78° -
BOGAL FIX A574 (AWY-LO) 19,500 ft / 5,944 m 9.56794˚ -77.41642˚ 49 nm 132 nm 69° / 69° -
DETOK FIX A574 (AWY-LO) 19,500 ft / 5,944 m 10.02306˚ -76.04667˚ 85 nm 217 nm 71° / 71° -
O SKBQ APT - 0 ft / 0 m 10.88959˚ -74.78082˚ 91 nm 308 nm 55° / 55° Ernesto Cortissoz

Altitude Profile

Advertisement - Login to hide

Weather


0- 5 10 15 20 25 30 35+ Temperature / ° C

Clouds and Precipitation
Forecast for 2017-12-19 00:00 UTC. Updated an hour ago

Ground ~20,000 ft ~40,000 ft Winds

MPMG

Details ICAO MPMG (PAC)
Name ALBROOK MARCOS A GELABERT INTL
Region Panama
Timezone America/Panama (UTC-5.0)
Stats Elevation 31 ft / 9 m (AMSL)
Location 8.973341° -79.555585°
Runways 1
Magnetic Variation 4.407° W

METAR

MPMG 182000Z 36007KT 9999 SCT020 31/23 Q1008 NOSIG

Decode

TAF

Not found

Departure Runways

ID Width Length Bearing (true) Bearing (mag) Surface Threshold Offset Overrun Length
18 98 ft / 30 m 5,925 ft / 1,806 m 185.03° 189.44° Asphalt 541 ft / 165 m 0 ft / 0 m
36 98 ft / 30 m 5,925 ft / 1,806 m 5.03° 9.44° Asphalt 443 ft / 135 m 0 ft / 0 m

SKBQ

Details ICAO SKBQ (BAQ)
Name Ernesto Cortissoz
Region Colombia
Timezone America/Bogota (UTC-5.0)
Stats Elevation 98 ft / 30 m (AMSL)
Location 10.889589° -74.780820°
Runways 1
Magnetic Variation 7.729° W

METAR

SKBQ 182000Z 02016KT CAVOK 31/24 A2978

Decode

TAF

Not found

Destination Runways

ID Width Length Bearing (true) Bearing (mag) Surface Threshold Offset Overrun Length
05 148 ft / 45 m 9,863 ft / 3,006 m 40.09° 47.82° Concrete 0 ft / 0 m 105 ft / 32 m
23 148 ft / 45 m 9,863 ft / 3,006 m 220.09° 227.82° Concrete 0 ft / 0 m 0 ft / 0 m

Approach Navaids

Runway Type Ident Frequency Range Bearing (true) Bearing (mag) Slope Elevation
05 Localiser IBAQ 109.90 MHz 18 nm / 33 km 39.98° 47.71° - 98 ft / 30 m (AMSL)
05 Glidescope IBAQ 109.90 MHz 10 nm / 19 km 40.09° 47.82° 3.00° 98 ft / 30 m (AMSL)

Popular Alternatives